Main page
METAR-TAF:

METAR-TAF

Airports :

Ouro Sogui Airport

Matam, Senegal

latitude: 15-39N, longitude: 013-15W, elevation: 15 m

Current weather observation

The report was made 27 minutes ago, at 03:00 UTC
Wind 2 kt from the North
Temperature 24°C
Humidity 38%
Pressure 1008 hPa
Visibility 10 km or more
no clouds below 1500 m and no cumulonimbus

METAR: GOSM 030300Z 36002KT CAVOK 24/09 Q1008

Time: 03:27 (03:27 UTC)


TAF: missing

Weather observations and forecasts of more than 4000 airports (METAR and TAF reports).

The available stations are represented by yellow and red dots on the map.

Hover mouse over dot to see the name of the station.

Then click to see weather observations and forecasts.

To change the map : click on the green buttons with a black cross to zoom in, on the green button with a dash to zoom out, or on the green arrows for adjacent maps.


METAR-TAF: